KPOY

Details ICAO KPOY
Name Powell Muni
Region United States
Timezone America/Denver (UTC-7.0)
Plans Departing 3
Arriving 1
Stats Elevation 5,092 ft / 1,552 m (AMSL)
Location 44.866508° -108.794226°
Runways 3
Magnetic Variation 10.692° E
Sunrise 2017-12-14 14:46:59 UTC / 2017-12-14 07:46:59 Local
Sunset 2017-12-14 23:35:49 UTC / 2017-12-14 16:35:49 Local
Advertisement - Login to hide

Runways

ID Width Length Bearing (true) Bearing (mag) Surface Threshold Offset Overrun Length
03 98 ft / 30 m 2,753 ft / 839 m 45.00° 34.31° Grass 0 ft / 0 m 0 ft / 0 m
13 98 ft / 30 m 6,195 ft / 1,888 m 144.80° 134.11° Asphalt 0 ft / 0 m 0 ft / 0 m
16 98 ft / 30 m 2,832 ft / 863 m 180.80° 170.11° Grass 0 ft / 0 m 0 ft / 0 m
21 98 ft / 30 m 2,753 ft / 839 m 225.00° 214.31° Grass 0 ft / 0 m 0 ft / 0 m
31 98 ft / 30 m 6,195 ft / 1,888 m 324.80° 314.11° Asphalt 0 ft / 0 m 0 ft / 0 m
34 98 ft / 30 m 2,832 ft / 863 m 0.80° 350.11° Grass 0 ft / 0 m 0 ft / 0 m

Map

Weather


0- 5 10 15 20 25 30 35+ Temperature / ° C

Clouds and Precipitation
Forecast for 2017-12-14 12:00 UTC. Updated an hour ago

Ground ~20,000 ft ~40,000 ft Winds

METAR

KPOY 141035Z AUTO 33008KT 10SM CLR M02/M08 A3026 RMK AO2

TAF

Not found

Frequencies

Recorded 119.27 MHz AWOS 3
Unicom 122.70 MHz CTAF/UNICOM
Warning: Do not use this data for real-world aviation or navigation. No guarantee of current accuracy is given.